Acushnet, MA (02743)

9:06 AM EDT on August 30, 2015 (GMT -0400)
APRSWXNET | | Change Station
CLOSE
Current Station
Personal Weather Station
Location: New Bedford, MA
Elevation: 93 ft
Nearby Weather Stations

Elev 93 ft 41.70 °N, 70.93 °W | Updated 26 minutes ago

Clear
Clear
74 °F
Feels Like 73 °F
N
3
Wind Variable Wind from SSW
Gusts 5.0 mph

Today
High -- | Low -- °F
--% Chance of Precip.
Yesterday
High -- | Low -- °F
Precip. -- in
6:07 AM 7:20 PM
Full, 99% visible
Pressure 30.08 in
Visibility 10.0 miles
Clouds Clear
Heat Index 73 °F
Dew Point 69 °F
Humidity 85%
Rainfall in
Snow Depth Not available.
UV 3 out of 12
Pollen 9.90 out of 12
Air Quality Not available.
Flu Activity Not available.
METAR KEWB 301253Z 25006KT 10SM CLR 24/19 A3008 RMK AO2 SLP186 T02390194
Pressure 30.08 in
Visibility 10.0 miles
Clouds Clear
Heat Index 73 °F
Dew Point 69 °F
Humidity 85%
Rainfall in
Snow Depth Not available.
UV 3 out of 12
Pollen 9.90 out of 12
Air Quality Not available.
Flu Activity Not available.
METAR KEWB 301253Z 25006KT 10SM CLR 24/19 A3008 RMK AO2 SLP186 T02390194

10-Day Weather Forecast

×

Almanac

Astronomy

Aug. 30, 2015 Rise Set
Actual Time
Civil Twilight
Nautical Twilight
Astronomical Twilight
Moon
Length of Visible Light
Length of Day
Tomorrow will be .
, % of the Moon is Illuminated

Today's Extremes

State Highs State Lows

Community

WunderPhotos

Upload Photos

1,850,945 photos uploaded!

WunderBlogs® & News

Nearby

Air Quality

  Air Quality AQ Index Pollutant
Not available.

Snow Depth

Station Depth Elevation

Earthquake Activity

City Distance Mag. Time & Date
Minimum magnitude displayed is 2.5.

Coastal Water Temperatures

Place Temperature

Stations

Nearby Weather Stations

Station Location Temp. Windchill Dew Point Humidity Wind Precip. Elev Updated Type